Pagrindinis puslapis
METAR-TAF:

METAR-TAF

Oro uostai :

Kosraė, Mikronezija

platuma: 05-21N, ilguma: 162-57E, Aukštis: 3 m

Dabartinis oras

Ataskaita buvo paskelbta 48 minutes, ne 19:50 UTC
Vėjas 6 kt iš Pietryčių
Temperatūra 26°C
Drėgmė 84%
Slėgis 1008 hPa
Matomumas: 16.1 km
Išsisklaidę debesys ne aukštis 1900 ft
Išsisklaidę debesys ne aukštis 13000 ft
Su prošvaistėmis ne aukštis 30000 ft

METAR: PTSA 141950Z 13006KT 10SM SCT019 SCT130 BKN300 26/23 A2977

Laikas: 07:38 (20:38 UTC)

Prognozė

Ataskaita buvo paskelbta 3 valandos ir 9 minutes, ne 17:29 UTC
Prognozė galioja nuo 14 metu 17 UTC su 15 metu 18 UTC
Vėjas 5 kt iš Pietryčių
Matomumas: 10 km
Išsisklaidę debesys ne aukštis 1500 ft
Su prošvaistėmis ne aukštis 13000 ft

TAF: PTSA 141729Z 1417/1518 14005KT P6SM SCT015 BKN130

Orai ataskaitas ir orų prognozės (METAR, TAF).

turimą stotys yra geltonos ir raudonos taškus žemėlapyje.

Perkelti pele per norėdami pamatyti stoties vardą.

Tada spustelėkite, norėdami matyti oro stebėjimo ir prognozės.

Norėdami pakeisti žemėlapį: spustelėkite ant žalios mygtukų su juodo kryžiaus žemyn,; žalią mygtuką su brūkšneliu, jei norite nutolinti; arba žalių rodyklių gretimoms žemėlapius.


METAR-TAF: